createdAt,value
2019-03-24T00:02:22.928Z,28.60
2019-03-24T00:04:48.976Z,31.50
2019-03-24T00:07:15.071Z,29.92
2019-03-24T00:09:41.157Z,31.77
2019-03-24T00:12:07.233Z,34.25
2019-03-24T00:14:33.335Z,32.38
2019-03-24T00:16:59.408Z,30.92
2019-03-24T00:19:25.462Z,31.57
2019-03-24T00:21:51.526Z,31.15
2019-03-24T00:24:17.596Z,32.88
2019-03-24T00:26:43.696Z,31.00
2019-03-24T00:29:09.792Z,31.15
2019-03-24T00:31:35.878Z,31.05
2019-03-24T00:34:01.933Z,32.05
2019-03-24T00:36:28.034Z,31.90
2019-03-24T00:38:54.095Z,29.67
2019-03-24T00:41:20.176Z,31.40
2019-03-24T00:43:46.261Z,29.35
2019-03-24T00:46:12.356Z,31.27
2019-03-24T00:48:38.416Z,31.85
2019-03-24T00:51:04.533Z,31.65
2019-03-24T00:53:30.707Z,31.97
2019-03-24T00:55:56.789Z,33.85
2019-03-24T00:58:23.808Z,31.15
2019-03-24T01:00:50.277Z,31.02
2019-03-24T01:03:16.428Z,33.02
2019-03-24T01:05:42.620Z,29.95
2019-03-24T01:08:08.781Z,33.98
2019-03-24T01:10:34.863Z,31.30
2019-03-24T01:13:00.920Z,32.28
2019-03-24T01:15:26.998Z,32.83
2019-03-24T01:17:53.079Z,31.55
2019-03-24T01:20:19.228Z,30.72
2019-03-24T01:22:45.403Z,31.65
2019-03-24T01:25:11.671Z,31.10
2019-03-24T01:27:37.765Z,28.45
2019-03-24T01:30:05.735Z,30.60
2019-03-24T01:32:31.795Z,29.35
2019-03-24T01:34:57.880Z,30.90
2019-03-24T01:37:23.951Z,28.17
2019-03-24T01:39:50.211Z,26.02
2019-03-24T01:42:16.301Z,25.60
2019-03-24T01:44:42.387Z,27.15
2019-03-24T01:47:08.460Z,27.20
2019-03-24T01:49:34.545Z,27.27
2019-03-24T01:52:00.599Z,27.85
2019-03-24T01:54:26.671Z,28.85
2019-03-24T01:56:52.795Z,29.30
2019-03-24T01:59:18.865Z,30.90
2019-03-24T02:01:44.961Z,32.05
2019-03-24T02:04:11.012Z,30.70
2019-03-24T02:06:38.677Z,32.65
2019-03-24T02:09:06.596Z,30.77
2019-03-24T02:11:32.643Z,29.87
2019-03-24T02:13:58.729Z,31.97
2019-03-24T02:16:24.791Z,32.08
2019-03-24T02:18:50.879Z,36.83
2019-03-24T02:21:17.041Z,39.13
2019-03-24T02:23:43.124Z,32.55
2019-03-24T02:26:09.198Z,29.10
2019-03-24T02:28:35.303Z,31.00
2019-03-24T02:31:01.391Z,29.72
2019-03-24T02:33:27.469Z,28.27
2019-03-24T02:35:53.513Z,27.25
2019-03-24T02:38:19.607Z,30.55
2019-03-24T02:40:45.705Z,30.48
2019-03-24T02:43:11.888Z,27.67
2019-03-24T02:45:37.957Z,29.10
2019-03-24T02:48:04.148Z,28.00
2019-03-24T02:50:30.208Z,28.80
2019-03-24T02:52:56.285Z,29.80
2019-03-24T02:55:22.372Z,28.77
2019-03-24T02:57:48.444Z,27.90
2019-03-24T03:00:15.026Z,29.07
2019-03-24T03:02:41.107Z,32.05
2019-03-24T03:05:08.009Z,30.12
2019-03-24T03:07:34.162Z,30.95
2019-03-24T03:10:00.493Z,30.05
2019-03-24T03:12:26.712Z,28.77
2019-03-24T03:14:52.896Z,27.90
2019-03-24T03:17:18.972Z,30.32
2019-03-24T03:19:45.046Z,30.52
2019-03-24T03:22:11.114Z,29.65
2019-03-24T03:24:37.290Z,30.55
2019-03-24T03:27:03.503Z,30.77
2019-03-24T03:29:29.620Z,30.50
2019-03-24T03:31:55.717Z,31.30
2019-03-24T03:34:21.782Z,30.37
2019-03-24T03:36:47.866Z,31.77
2019-03-24T03:39:14.071Z,30.80
2019-03-24T03:41:40.234Z,31.17
2019-03-24T03:44:06.408Z,28.47
2019-03-24T03:46:32.478Z,29.37
2019-03-24T03:48:58.652Z,29.20
2019-03-24T03:51:24.737Z,26.90
2019-03-24T03:53:50.800Z,30.37
2019-03-24T03:56:16.856Z,30.77
2019-03-24T03:58:43.002Z,32.13
2019-03-24T04:01:09.067Z,30.08
2019-03-24T04:03:35.137Z,28.62
2019-03-24T04:06:01.300Z,28.27
2019-03-24T04:08:27.392Z,29.00
2019-03-24T04:10:53.465Z,26.20
2019-03-24T04:13:19.564Z,29.20
2019-03-24T04:15:46.053Z,28.90
2019-03-24T04:18:12.140Z,28.73
2019-03-24T04:20:38.220Z,27.65
2019-03-24T04:23:04.402Z,28.47
2019-03-24T04:25:30.477Z,30.85
2019-03-24T04:27:56.535Z,29.57
2019-03-24T04:30:22.740Z,28.27
2019-03-24T04:32:48.804Z,30.10
2019-03-24T04:35:14.895Z,31.20
2019-03-24T04:37:41.012Z,32.75
2019-03-24T04:40:07.377Z,30.48
2019-03-24T04:42:33.490Z,30.55
2019-03-24T04:44:59.684Z,29.80
2019-03-24T04:47:25.747Z,32.23
2019-03-24T04:49:51.830Z,33.10
2019-03-24T04:52:17.912Z,35.10
2019-03-24T04:54:44.054Z,36.20
2019-03-24T04:57:10.174Z,32.60
2019-03-24T04:59:36.331Z,33.33
2019-03-24T05:02:02.509Z,33.55
2019-03-24T05:04:28.596Z,34.15
2019-03-24T05:06:55.134Z,35.20
2019-03-24T05:09:21.928Z,37.33
2019-03-24T05:11:47.991Z,33.90
2019-03-24T05:14:14.055Z,28.47
2019-03-24T05:16:40.131Z,31.73
2019-03-24T05:19:06.176Z,26.75
2019-03-24T05:21:32.257Z,24.37
2019-03-24T05:23:58.357Z,28.70
2019-03-24T05:26:24.635Z,28.23
2019-03-24T05:28:50.720Z,27.82
2019-03-24T05:31:16.799Z,28.45
2019-03-24T05:33:42.883Z,28.98
2019-03-24T05:36:08.944Z,25.72
2019-03-24T05:38:35.017Z,29.57
2019-03-24T05:41:01.098Z,26.87
2019-03-24T05:43:27.159Z,28.42
2019-03-24T05:45:53.259Z,27.60
2019-03-24T05:48:19.461Z,24.40
2019-03-24T05:50:45.567Z,22.87
2019-03-24T05:53:11.643Z,24.23
2019-03-24T05:55:37.722Z,21.55
2019-03-24T05:58:03.818Z,22.90
2019-03-24T06:00:29.892Z,26.07
2019-03-24T06:02:57.345Z,26.90
2019-03-24T06:05:23.669Z,30.08
2019-03-24T06:07:49.765Z,28.52
2019-03-24T06:10:16.043Z,25.52
2019-03-24T06:12:42.136Z,25.10
2019-03-24T06:15:09.105Z,25.60
2019-03-24T06:17:35.245Z,25.50
2019-03-24T06:20:02.032Z,26.60
2019-03-24T06:22:28.220Z,28.17
2019-03-24T06:24:54.383Z,27.85
2019-03-24T06:27:20.477Z,29.92
2019-03-24T06:29:46.538Z,26.17
2019-03-24T06:32:12.599Z,27.62
2019-03-24T06:34:38.666Z,25.52
2019-03-24T06:37:04.721Z,25.43
2019-03-24T06:39:30.817Z,25.05
2019-03-24T06:41:56.882Z,24.47
2019-03-24T06:44:22.987Z,22.55
2019-03-24T06:46:49.057Z,24.37
2019-03-24T06:49:16.151Z,28.07
2019-03-24T06:51:42.227Z,29.20
2019-03-24T06:54:08.297Z,28.55
2019-03-24T06:56:34.363Z,28.92
2019-03-24T06:59:00.464Z,27.05
2019-03-24T07:01:26.620Z,35.28
2019-03-24T07:03:52.760Z,42.73
2019-03-24T07:06:18.877Z,40.58
2019-03-24T07:08:44.984Z,34.98
2019-03-24T07:11:13.876Z,35.10
2019-03-24T07:13:40.026Z,36.03
2019-03-24T07:16:06.108Z,40.48
2019-03-24T07:18:32.211Z,37.50
2019-03-24T07:20:58.280Z,33.92
2019-03-24T07:23:24.345Z,42.93
2019-03-24T07:25:50.425Z,33.80
2019-03-24T07:28:16.520Z,36.23
2019-03-24T07:30:42.599Z,35.60
2019-03-24T07:33:08.680Z,36.80
2019-03-24T07:35:34.784Z,34.83
2019-03-24T07:38:00.851Z,38.58
2019-03-24T07:40:26.928Z,35.00
2019-03-24T07:42:53.028Z,38.90
2019-03-24T07:45:19.126Z,38.70
2019-03-24T07:47:45.233Z,40.38
2019-03-24T07:50:11.612Z,37.33
2019-03-24T07:52:37.695Z,43.00
2019-03-24T07:55:05.491Z,37.80
2019-03-24T07:57:31.559Z,41.83
2019-03-24T07:59:57.696Z,59.55
2019-03-24T08:02:23.772Z,49.73
2019-03-24T08:04:49.889Z,69.67
2019-03-24T08:07:15.967Z,51.90
2019-03-24T08:09:42.077Z,46.92
2019-03-24T08:12:08.144Z,42.20
2019-03-24T08:14:34.220Z,39.83
2019-03-24T08:17:00.312Z,39.80
2019-03-24T08:19:26.377Z,45.85
2019-03-24T08:21:52.463Z,39.53
2019-03-24T08:24:18.577Z,44.70
2019-03-24T08:26:44.648Z,42.93
2019-03-24T08:29:10.727Z,39.05
2019-03-24T08:31:36.804Z,46.58
2019-03-24T08:34:02.994Z,41.80
2019-03-24T08:36:29.061Z,40.10
2019-03-24T08:38:55.228Z,42.23
2019-03-24T08:41:21.394Z,42.98
2019-03-24T08:43:47.563Z,39.65
2019-03-24T08:46:13.679Z,41.98
2019-03-24T08:48:41.123Z,43.63
2019-03-24T08:51:07.586Z,38.80
2019-03-24T08:53:33.800Z,40.73
2019-03-24T08:55:59.984Z,45.33
2019-03-24T08:58:26.076Z,42.62
2019-03-24T09:00:52.148Z,46.48
2019-03-24T09:03:18.237Z,46.15
2019-03-24T09:05:44.329Z,46.63
2019-03-24T09:08:10.401Z,43.30
2019-03-24T09:10:36.607Z,59.60
2019-03-24T09:13:02.864Z,40.90
2019-03-24T09:15:29.900Z,45.98
2019-03-24T09:17:55.992Z,48.73
2019-03-24T09:20:22.097Z,41.10
2019-03-24T09:22:48.153Z,42.85
2019-03-24T09:25:14.248Z,39.73
2019-03-24T09:27:40.311Z,42.20
2019-03-24T09:30:13.200Z,45.10
2019-03-24T09:32:39.268Z,43.08
2019-03-24T09:35:05.441Z,50.85
2019-03-24T09:37:31.675Z,45.23
2019-03-24T09:39:57.736Z,42.17
2019-03-24T09:42:23.816Z,43.83
2019-03-24T09:44:49.879Z,42.15
2019-03-24T09:47:16.048Z,41.42
2019-03-24T09:49:42.196Z,39.90
2019-03-24T09:52:08.265Z,37.97
2019-03-24T09:54:34.344Z,37.97
2019-03-24T09:57:00.459Z,40.07
2019-03-24T09:59:27.537Z,38.87
2019-03-24T10:01:53.620Z,39.97
2019-03-24T10:04:19.700Z,40.10
2019-03-24T10:06:45.763Z,39.40
2019-03-24T10:09:11.863Z,42.97
2019-03-24T10:11:37.925Z,42.40
2019-03-24T10:14:04.057Z,38.63
2019-03-24T10:16:30.180Z,42.80
2019-03-24T10:18:56.243Z,40.23
2019-03-24T10:21:22.336Z,41.03
2019-03-24T10:23:48.412Z,39.00
2019-03-24T10:26:14.490Z,41.20
2019-03-24T10:28:40.573Z,41.50
2019-03-24T10:31:06.648Z,43.10
2019-03-24T10:33:32.715Z,40.43
2019-03-24T10:35:58.816Z,40.77
2019-03-24T10:38:24.952Z,43.67
2019-03-24T10:40:51.162Z,38.40
2019-03-24T10:43:17.227Z,38.60
2019-03-24T10:45:43.300Z,40.97
2019-03-24T10:48:09.370Z,40.60
2019-03-24T10:50:35.486Z,40.17
2019-03-24T10:53:01.761Z,42.40
2019-03-24T10:55:27.831Z,41.87
2019-03-24T10:57:54.067Z,39.20
2019-03-24T11:00:35.162Z,39.67
2019-03-24T11:03:01.284Z,41.93
2019-03-24T11:05:27.404Z,43.57
2019-03-24T11:07:53.569Z,41.10
2019-03-24T11:10:19.699Z,44.87
2019-03-24T11:12:45.776Z,43.13
2019-03-24T11:15:12.068Z,44.03
2019-03-24T11:17:38.249Z,41.63
2019-03-24T11:20:05.710Z,42.73
2019-03-24T11:22:35.139Z,42.80
2019-03-24T11:25:01.219Z,41.60
2019-03-24T11:27:27.303Z,44.70
2019-03-24T11:29:53.475Z,41.57
2019-03-24T11:32:19.544Z,43.57
2019-03-24T11:34:45.610Z,41.80
2019-03-24T11:37:11.680Z,43.90
2019-03-24T11:39:37.752Z,47.37
2019-03-24T11:42:03.840Z,43.50
2019-03-24T11:44:29.904Z,43.17
2019-03-24T11:46:55.968Z,41.53
2019-03-24T11:49:22.048Z,41.40
2019-03-24T11:51:48.278Z,40.87
2019-03-24T11:54:14.510Z,39.57
2019-03-24T11:56:40.633Z,37.10
2019-03-24T11:59:06.786Z,38.00
2019-03-24T12:01:38.157Z,39.77
2019-03-24T12:04:00.906Z,39.03
2019-03-24T12:06:27.021Z,39.37
2019-03-24T12:08:53.115Z,37.83
2019-03-24T12:11:19.238Z,37.50
2019-03-24T12:13:45.312Z,38.17
2019-03-24T12:16:11.717Z,38.83
2019-03-24T12:18:37.865Z,39.20
2019-03-24T12:21:03.923Z,36.20
2019-03-24T12:23:30.014Z,41.30
2019-03-24T12:25:56.108Z,41.43
2019-03-24T12:28:22.304Z,38.90
2019-03-24T12:30:48.396Z,37.80
2019-03-24T12:33:14.489Z,35.27
2019-03-24T12:35:40.539Z,38.57
2019-03-24T12:38:06.714Z,37.83
2019-03-24T12:40:32.803Z,38.50
2019-03-24T12:42:58.968Z,37.60
2019-03-24T12:45:25.040Z,36.23
2019-03-24T12:47:51.121Z,38.03
2019-03-24T12:50:17.197Z,38.83
2019-03-24T12:52:43.284Z,37.57
2019-03-24T12:55:09.468Z,38.80
2019-03-24T12:57:35.673Z,36.77
2019-03-24T13:00:06.820Z,38.57
2019-03-24T13:02:32.877Z,39.10
2019-03-24T13:04:59.265Z,41.23
2019-03-24T13:07:25.435Z,36.60
2019-03-24T13:09:51.617Z,37.70
2019-03-24T13:12:17.707Z,36.67
2019-03-24T13:14:43.901Z,35.27
2019-03-24T13:17:10.014Z,35.67
2019-03-24T13:19:36.335Z,35.30
2019-03-24T13:22:02.592Z,36.57
2019-03-24T13:24:28.700Z,35.13
2019-03-24T13:26:54.852Z,33.87
2019-03-24T13:29:21.025Z,34.40
2019-03-24T13:31:48.308Z,33.03
2019-03-24T13:34:15.112Z,31.20
2019-03-24T13:36:41.270Z,31.20
2019-03-24T13:39:07.439Z,31.03
2019-03-24T13:41:33.520Z,34.63
2019-03-24T13:43:59.588Z,33.40
2019-03-24T13:46:25.667Z,33.40
2019-03-24T13:48:51.738Z,29.10
2019-03-24T13:51:17.816Z,31.13
2019-03-24T13:53:43.883Z,27.73
2019-03-24T13:56:10.057Z,31.40
2019-03-24T13:58:36.127Z,28.80
2019-03-24T14:01:03.509Z,29.90
2019-03-24T14:03:29.693Z,31.77
2019-03-24T14:05:55.847Z,30.27
2019-03-24T14:08:22.036Z,31.03
2019-03-24T14:10:48.118Z,32.37
2019-03-24T14:13:14.271Z,30.63
2019-03-24T14:15:40.349Z,29.30
2019-03-24T14:18:06.401Z,28.97
2019-03-24T14:20:42.667Z,30.57
2019-03-24T14:23:00.478Z,33.10
2019-03-24T14:25:26.549Z,30.87
2019-03-24T14:27:52.689Z,30.63
2019-03-24T14:30:22.657Z,32.63
2019-03-24T14:32:48.752Z,31.50
2019-03-24T14:35:14.842Z,31.07
2019-03-24T14:37:41.017Z,32.90
2019-03-24T14:40:07.441Z,30.67
2019-03-24T14:42:33.530Z,30.17
2019-03-24T14:44:59.612Z,32.10
2019-03-24T14:47:25.800Z,33.00
2019-03-24T14:49:51.861Z,31.47
2019-03-24T14:52:17.932Z,32.63
2019-03-24T14:54:44.004Z,32.00
2019-03-24T14:57:10.110Z,29.57
2019-03-24T14:59:36.288Z,30.80
2019-03-24T15:02:02.410Z,32.40
2019-03-24T15:04:28.519Z,31.40
2019-03-24T15:06:54.600Z,31.47
2019-03-24T15:09:20.692Z,30.70
2019-03-24T15:11:46.746Z,31.40
2019-03-24T15:14:12.840Z,31.10
2019-03-24T15:16:39.003Z,29.27
2019-03-24T15:19:05.059Z,28.27
2019-03-24T15:21:31.180Z,29.20
2019-03-24T15:23:57.235Z,29.23
2019-03-24T15:26:23.322Z,27.73
2019-03-24T15:28:49.411Z,29.80
2019-03-24T15:31:15.503Z,28.60
2019-03-24T15:33:41.780Z,29.50
2019-03-24T15:36:07.965Z,29.17
2019-03-24T15:38:34.131Z,29.83
2019-03-24T15:41:00.337Z,28.60
2019-03-24T15:43:26.509Z,28.47
2019-03-24T15:45:52.623Z,28.80
2019-03-24T15:48:18.687Z,30.17
2019-03-24T15:50:44.780Z,28.40
2019-03-24T15:53:10.890Z,31.73
2019-03-24T15:55:37.148Z,31.53
2019-03-24T15:58:03.221Z,30.40
2019-03-24T16:00:40.841Z,31.80
2019-03-24T16:03:07.015Z,30.90
2019-03-24T16:05:33.104Z,45.43
2019-03-24T16:07:59.232Z,33.07
2019-03-24T16:10:34.859Z,33.90
2019-03-24T16:12:53.281Z,36.33
2019-03-24T16:15:19.362Z,34.70
2019-03-24T16:17:45.438Z,34.57
2019-03-24T16:20:11.634Z,40.77
2019-03-24T16:22:37.695Z,35.80
2019-03-24T16:25:05.777Z,36.60
2019-03-24T16:27:31.893Z,34.27
2019-03-24T16:29:58.060Z,36.07
2019-03-24T16:32:24.266Z,35.57
2019-03-24T16:34:50.339Z,37.70
2019-03-24T16:37:16.410Z,37.77
2019-03-24T16:39:42.516Z,32.73
2019-03-24T16:42:08.593Z,32.43
2019-03-24T16:44:34.798Z,34.03
2019-03-24T16:47:00.885Z,31.43
2019-03-24T16:49:26.972Z,32.87
2019-03-24T16:51:53.040Z,33.23
2019-03-24T16:54:19.136Z,38.07
2019-03-24T16:56:45.308Z,37.43
2019-03-24T16:59:15.299Z,34.93
2019-03-24T17:01:51.037Z,34.07
2019-03-24T17:04:23.851Z,34.13
2019-03-24T17:06:50.465Z,31.83
2019-03-24T17:09:16.568Z,31.60
2019-03-24T17:11:42.654Z,34.70
2019-03-24T17:14:08.824Z,32.07
2019-03-24T17:16:35.091Z,32.70
2019-03-24T17:19:01.198Z,32.27
2019-03-24T17:21:27.491Z,33.60
2019-03-24T17:23:53.734Z,33.93
2019-03-24T17:26:19.815Z,31.53
2019-03-24T17:28:47.039Z,32.83
2019-03-24T17:31:13.398Z,33.00
2019-03-24T17:33:39.586Z,37.60
2019-03-24T17:36:05.847Z,34.17
2019-03-24T17:38:32.080Z,35.00
2019-03-24T17:40:58.143Z,35.13
2019-03-24T17:43:24.224Z,35.43
2019-03-24T17:45:50.309Z,40.20
2019-03-24T17:48:16.492Z,43.37
2019-03-24T17:50:42.596Z,44.13
2019-03-24T17:53:08.672Z,42.17
2019-03-24T17:55:34.727Z,39.30
2019-03-24T17:58:00.851Z,36.03
2019-03-24T18:00:39.198Z,37.07
2019-03-24T18:03:05.492Z,37.57
2019-03-24T18:05:31.605Z,39.70
2019-03-24T18:07:57.823Z,37.50
2019-03-24T18:10:24.056Z,38.53
2019-03-24T18:12:50.356Z,36.47
2019-03-24T18:15:16.521Z,33.70
2019-03-24T18:17:42.652Z,38.00
2019-03-24T18:20:09.528Z,43.70
2019-03-24T18:22:35.745Z,40.33
2019-03-24T18:25:03.287Z,37.83
2019-03-24T18:27:29.374Z,38.10
2019-03-24T18:29:55.436Z,34.20
2019-03-24T18:32:23.050Z,34.90
2019-03-24T18:34:49.427Z,34.43
2019-03-24T18:37:15.519Z,34.50
2019-03-24T18:39:41.621Z,35.07
2019-03-24T18:42:07.798Z,34.37
2019-03-24T18:44:34.005Z,37.03
2019-03-24T18:47:00.096Z,37.17
2019-03-24T18:49:26.320Z,39.20
2019-03-24T18:51:52.745Z,38.07
2019-03-24T18:54:18.843Z,38.63
2019-03-24T18:56:45.012Z,41.17
2019-03-24T18:59:11.106Z,39.63
2019-03-24T19:01:37.191Z,40.83
2019-03-24T19:04:03.432Z,40.67
2019-03-24T19:06:29.558Z,42.47
2019-03-24T19:08:55.799Z,40.40
2019-03-24T19:11:22.073Z,42.17
2019-03-24T19:13:48.132Z,42.57
2019-03-24T19:16:14.241Z,44.60
2019-03-24T19:18:40.321Z,43.00
2019-03-24T19:21:06.396Z,43.50
2019-03-24T19:23:32.458Z,40.47
2019-03-24T19:25:58.943Z,42.77
2019-03-24T19:28:25.099Z,40.87
2019-03-24T19:30:51.608Z,40.90
2019-03-24T19:33:18.597Z,38.90
2019-03-24T19:35:44.663Z,41.20
2019-03-24T19:38:10.945Z,41.57
2019-03-24T19:40:37.092Z,40.73
2019-03-24T19:43:03.375Z,42.57
2019-03-24T19:45:29.445Z,40.03
2019-03-24T19:47:55.978Z,43.67
2019-03-24T19:50:22.447Z,42.63
2019-03-24T19:52:48.640Z,44.30
2019-03-24T19:55:14.839Z,40.37
2019-03-24T19:57:40.972Z,41.70
2019-03-24T20:00:08.023Z,41.40
2019-03-24T20:02:34.098Z,40.83
2019-03-24T20:05:00.362Z,41.77
2019-03-24T20:07:26.628Z,41.17
2019-03-24T20:09:52.709Z,41.87
2019-03-24T20:12:18.909Z,44.00
2019-03-24T20:14:44.996Z,41.80
2019-03-24T20:17:11.089Z,41.67
2019-03-24T20:19:37.239Z,40.00
2019-03-24T20:22:03.336Z,41.30
2019-03-24T20:24:29.506Z,39.80
2019-03-24T20:26:55.672Z,42.30
2019-03-24T20:29:21.882Z,41.87
2019-03-24T20:31:48.199Z,42.30
2019-03-24T20:34:14.300Z,41.00
2019-03-24T20:36:40.440Z,40.47
2019-03-24T20:39:07.628Z,43.10
2019-03-24T20:41:33.696Z,42.50
2019-03-24T20:43:59.808Z,40.80
2019-03-24T20:46:25.974Z,42.80
2019-03-24T20:48:52.101Z,43.40
2019-03-24T20:51:18.192Z,43.63
2019-03-24T20:53:44.539Z,43.00
2019-03-24T20:56:10.905Z,43.85
2019-03-24T20:58:37.431Z,46.05
2019-03-24T21:01:03.880Z,44.60
2019-03-24T21:03:30.331Z,44.20
2019-03-24T21:05:56.796Z,43.45
2019-03-24T21:08:23.237Z,45.48
2019-03-24T21:10:49.692Z,43.15
2019-03-24T21:13:16.142Z,46.50
2019-03-24T21:15:42.624Z,45.73
2019-03-24T21:18:09.072Z,45.33
2019-03-24T21:20:35.497Z,43.80
2019-03-24T21:23:01.976Z,44.75
2019-03-24T21:25:28.411Z,46.15
2019-03-24T21:27:54.845Z,46.73
2019-03-24T21:30:31.247Z,44.73
2019-03-24T21:32:57.822Z,45.60
2019-03-24T21:35:24.361Z,42.40
2019-03-24T21:37:50.800Z,42.83
2019-03-24T21:40:17.307Z,46.20
2019-03-24T21:42:43.783Z,45.63
2019-03-24T21:45:10.533Z,44.88
2019-03-24T21:47:36.987Z,45.10
2019-03-24T21:50:05.052Z,46.28
2019-03-24T21:52:31.477Z,44.63
2019-03-24T21:54:57.903Z,43.85
2019-03-24T21:57:24.359Z,46.28
2019-03-24T21:59:50.875Z,45.28
2019-03-24T22:02:17.716Z,44.08
2019-03-24T22:04:44.284Z,44.13
2019-03-24T22:07:10.731Z,45.55
2019-03-24T22:09:37.204Z,46.73
2019-03-24T22:12:03.667Z,45.23
2019-03-24T22:14:30.104Z,43.98
2019-03-24T22:16:56.567Z,44.88
2019-03-24T22:19:23.319Z,44.67
2019-03-24T22:21:49.798Z,47.03
2019-03-24T22:24:16.286Z,45.95
2019-03-24T22:26:42.828Z,47.65
2019-03-24T22:29:09.256Z,46.65
2019-03-24T22:31:35.745Z,47.30
2019-03-24T22:34:02.689Z,47.73
2019-03-24T22:36:29.126Z,47.80
2019-03-24T22:38:55.570Z,48.02
2019-03-24T22:41:22.026Z,46.00
2019-03-24T22:43:48.509Z,46.10
2019-03-24T22:46:15.000Z,46.45
2019-03-24T22:48:41.445Z,48.48
2019-03-24T22:51:07.884Z,48.48
2019-03-24T22:53:34.347Z,47.45
2019-03-24T22:56:00.810Z,45.40
2019-03-24T22:58:27.267Z,48.17
2019-03-24T23:00:54.496Z,45.60
2019-03-24T23:03:20.945Z,45.95
2019-03-24T23:05:47.439Z,44.63
2019-03-24T23:08:13.981Z,49.03
2019-03-24T23:10:40.403Z,48.58
2019-03-24T23:13:06.851Z,47.95
2019-03-24T23:15:33.279Z,46.98
2019-03-24T23:17:59.724Z,48.08
2019-03-24T23:20:26.156Z,47.78
2019-03-24T23:22:52.832Z,49.25
2019-03-24T23:25:19.275Z,45.78
2019-03-24T23:27:45.729Z,46.33
2019-03-24T23:30:12.295Z,47.78
2019-03-24T23:32:38.751Z,46.13
2019-03-24T23:35:05.577Z,42.45
2019-03-24T23:37:32.038Z,44.08
2019-03-24T23:39:58.475Z,45.12
2019-03-24T23:42:24.912Z,44.98
2019-03-24T23:44:51.481Z,46.08
2019-03-24T23:47:17.911Z,48.00
2019-03-24T23:49:44.454Z,44.73
2019-03-24T23:52:10.900Z,42.78
2019-03-24T23:54:37.363Z,45.03
2019-03-24T23:57:03.880Z,44.63
2019-03-24T23:59:30.356Z,45.35
